Wetterdaten: aktuell Dienstag, 27.07.2021 05:00
Datum Zeit Temp. A. Feuchte A. Luftdruck Regen Wind Taupunkt Windchill Windben
27.07.2021 05:00 14,7 C 83 % 1014,1 hPa 0,0 l/m 1,8 km/h (1 Bft) 11,8 C 14,7 C 3,2 km/h (1 Bft)
27.07.2021 04:50 14,8 C 83 % 1014,2 hPa 0,0 l/m 3,9 km/h (1 Bft) 11,9 C 14,8 C 8,0 km/h (2 Bft)
27.07.2021 04:40 14,8 C 83 % 1014,1 hPa 0,0 l/m 2,1 km/h (1 Bft) 11,9 C 14,8 C 6,4 km/h (2 Bft)
27.07.2021 04:30 14,8 C 83 % 1014,0 hPa 0,0 l/m 2,5 km/h (1 Bft) 11,9 C 14,8 C 4,8 km/h (1 Bft)
27.07.2021 04:20 14,7 C 81 % 1014,1 hPa 0,0 l/m 2,6 km/h (1 Bft) 11,5 C 14,7 C 4,8 km/h (1 Bft)
27.07.2021 04:10 14,8 C 79 % 1014,0 hPa 0,0 l/m 2,3 km/h (1 Bft) 11,2 C 14,8 C 6,4 km/h (2 Bft)
27.07.2021 04:00 14,8 C 77 % 1014,1 hPa 0,0 l/m 1,7 km/h (1 Bft) 10,8 C 14,8 C 4,8 km/h (1 Bft)
27.07.2021 03:50 15,0 C 77 % 1013,9 hPa 0,0 l/m 0,3 km/h (0 Bft) 11,0 C 15,0 C 3,2 km/h (1 Bft)
27.07.2021 03:40 15,2 C 77 % 1014,0 hPa 0,0 l/m 2,4 km/h (1 Bft) 11,2 C 15,2 C 4,8 km/h (1 Bft)
27.07.2021 03:30 15,3 C 76 % 1014,0 hPa 0,0 l/m 3,5 km/h (1 Bft) 11,1 C 15,3 C 6,4 km/h (2 Bft)
27.07.2021 03:20 15,4 C 75 % 1014,1 hPa 0,0 l/m 2,7 km/h (1 Bft) 11,0 C 15,4 C 4,8 km/h (1 Bft)
27.07.2021 03:10 15,6 C 75 % 1014,0 hPa 0,0 l/m 2,8 km/h (1 Bft) 11,2 C 15,6 C 4,8 km/h (1 Bft)
27.07.2021 03:00 15,7 C 75 % 1014,0 hPa 0,0 l/m 3,4 km/h (1 Bft) 11,3 C 15,7 C 6,4 km/h (2 Bft)
27.07.2021 02:50 15,8 C 75 % 1014,1 hPa 0,0 l/m 3,8 km/h (1 Bft) 11,4 C 15,8 C 6,4 km/h (2 Bft)
27.07.2021 02:40 15,9 C 75 % 1014,1 hPa 0,0 l/m 3,9 km/h (1 Bft) 11,5 C 15,9 C 6,4 km/h (2 Bft)
27.07.2021 02:30 15,9 C 74 % 1014,1 hPa 0,0 l/m 4,0 km/h (1 Bft) 11,3 C 15,9 C 8,0 km/h (2 Bft)
27.07.2021 02:20 16,1 C 71 % 1014,1 hPa 0,0 l/m 0,1 km/h (0 Bft) 10,8 C 16,1 C 1,6 km/h (1 Bft)
27.07.2021 02:10 16,3 C 71 % 1014,0 hPa 0,0 l/m 1,6 km/h (1 Bft) 11,0 C 16,3 C 6,4 km/h (2 Bft)
27.07.2021 02:00 16,6 C 71 % 1014,0 hPa 0,0 l/m 2,2 km/h (1 Bft) 11,3 C 16,6 C 6,4 km/h (2 Bft)
27.07.2021 01:50 16,6 C 71 % 1014,0 hPa 0,0 l/m 1,7 km/h (1 Bft) 11,3 C 16,6 C 6,4 km/h (2 Bft)
27.07.2021 01:40 16,7 C 70 % 1013,8 hPa 0,0 l/m 2,1 km/h (1 Bft) 11,2 C 16,7 C 6,4 km/h (2 Bft)
_ Min-Zeit 04:20 00:20 00:00 - 02:20 04:00 04:20 02:20
Minimum _ 14,7 C 65 % 1013,7 hPa - 0,1 km/h (0 Bft) 10,8 C 14,7 C 1,6 km/h (1 Bft)
_ Max-Zeit 00:00 04:30 04:50 00:00 00:30 04:30 00:00 00:30
Maximum _ 18,6 C 83 % 1014,2 hPa 0,0 l/m 4,5 km/h
S-SW (1 Bft)
11,9 C 18,4 C 12,9 km/h
S-SW (3 Bft)
Durchschnitt _ 16,3 C 73 % 1014,0 hPa #0,0 l/m 2,5 km/h (1 Bft) 11,4 C 16,3 C 6,0 km/h (2 Bft)